Time;durP1;ratioP1;P1;durP2;ratioP2;P2;SDS_P1;SDS_P2;PMS_P1;PMS_P2;Temp;Humidity;BMP_temperature;BMP_pressure;BME280_temperature;BME280_humidity;BME280_pressure;Samples;Min_cycle;Max_cycle;Signal;HPM_P1;HPM_P2
2021/06/24 00:01:01;;;;;;;45.72;26.15;;;12.40;99.90;;;;;;5075107;28;20032;-61
2021/06/24 00:03:28;;;;;;;25.55;13.18;;;12.30;99.90;;;;;;5072730;28;20036;-61
2021/06/24 00:05:55;;;;;;;31.52;19.33;;;12.30;99.90;;;;;;5081270;28;20039;-60
2021/06/24 00:08:22;;;;;;;76.80;58.33;;;12.30;99.90;;;;;;5083569;28;20466;-59
2021/06/24 00:10:49;;;;;;;79.40;57.70;;;12.30;99.90;;;;;;5072787;28;20173;-60
2021/06/24 00:13:15;;;;;;;58.83;46.70;;;12.30;99.90;;;;;;5082786;28;20032;-61
2021/06/24 00:15:42;;;;;;;20.48;15.95;;;12.30;99.90;;;;;;5073615;28;20036;-59
2021/06/24 00:18:08;;;;;;;23.77;16.65;;;12.20;99.90;;;;;;5073149;28;20132;-58
2021/06/24 00:20:36;;;;;;;20.20;12.40;;;12.10;99.90;;;;;;5072633;28;20028;-58
2021/06/24 00:23:02;;;;;;;16.38;8.07;;;12.10;99.90;;;;;;5072974;28;20107;-60
2021/06/24 00:25:28;;;;;;;18.65;8.68;;;12.10;99.90;;;;;;5062980;28;20043;-61
2021/06/24 00:27:55;;;;;;;9.48;6.25;;;12.10;99.90;;;;;;5082692;28;20473;-58
2021/06/24 00:30:21;;;;;;;13.27;5.97;;;12.00;99.90;;;;;;5073947;28;20060;-58
2021/06/24 00:32:47;;;;;;;16.17;8.05;;;11.90;99.90;;;;;;5071884;28;20033;-61
2021/06/24 00:35:14;;;;;;;11.93;7.45;;;11.90;99.90;;;;;;5072632;28;20086;-60
2021/06/24 00:37:41;;;;;;;14.77;7.07;;;11.90;99.90;;;;;;5074064;28;20052;-60
2021/06/24 00:40:09;;;;;;;10.43;5.72;;;11.80;99.90;;;;;;5071892;28;20040;-59
2021/06/24 00:42:36;;;;;;;10.07;5.13;;;11.80;99.90;;;;;;5071620;28;20043;-60
2021/06/24 00:45:04;;;;;;;10.02;4.80;;;11.70;99.90;;;;;;5077030;28;20095;-61
2021/06/24 00:47:29;;;;;;;7.90;4.88;;;11.60;99.90;;;;;;5072059;28;20111;-59
2021/06/24 00:49:55;;;;;;;11.00;7.35;;;11.60;99.90;;;;;;5070786;28;20092;-59
2021/06/24 00:52:21;;;;;;;10.45;7.70;;;11.60;99.90;;;;;;5072265;28;20111;-59
2021/06/24 00:54:46;;;;;;;12.93;7.28;;;11.50;99.90;;;;;;5071918;28;20110;-59
2021/06/24 00:57:13;;;;;;;10.43;4.78;;;11.40;99.90;;;;;;5073128;28;20038;-61
2021/06/24 00:59:38;;;;;;;8.68;4.72;;;11.40;99.90;;;;;;5072058;28;20021;-57
2021/06/24 01:02:05;;;;;;;7.55;4.28;;;11.30;99.90;;;;;;5071650;28;20683;-60
2021/06/24 01:04:32;;;;;;;10.25;4.53;;;11.20;99.90;;;;;;5072049;28;20040;-57
2021/06/24 01:06:58;;;;;;;9.75;4.10;;;11.20;99.90;;;;;;5081533;28;20549;-60
2021/06/24 01:09:24;;;;;;;15.00;11.10;;;11.10;99.90;;;;;;5087523;28;20119;-60
2021/06/24 01:11:50;;;;;;;27.33;20.42;;;11.10;99.90;;;;;;5071466;28;20115;-60
2021/06/24 01:14:16;;;;;;;30.48;19.20;;;11.10;99.90;;;;;;5079318;28;20021;-62
2021/06/24 01:16:43;;;;;;;11.95;5.15;;;11.10;99.90;;;;;;5073384;28;20063;-59
2021/06/24 01:19:12;;;;;;;5.45;4.00;;;11.10;99.90;;;;;;5086289;28;20046;-59
2021/06/24 01:21:38;;;;;;;8.07;4.47;;;11.00;99.90;;;;;;5071691;28;20086;-60
2021/06/24 01:24:04;;;;;;;7.93;4.43;;;10.90;99.90;;;;;;5070869;28;20056;-59
2021/06/24 01:26:31;;;;;;;9.70;4.65;;;10.90;99.90;;;;;;5071006;28;20056;-60
2021/06/24 01:28:56;;;;;;;9.48;4.07;;;10.90;99.90;;;;;;5084088;28;20385;-59
2021/06/24 01:31:23;;;;;;;8.18;4.30;;;10.80;99.90;;;;;;5078640;28;20041;-60
2021/06/24 01:33:48;;;;;;;9.77;4.47;;;10.80;99.90;;;;;;5070616;28;20107;-60
2021/06/24 01:36:15;;;;;;;6.82;4.47;;;10.80;99.90;;;;;;5070763;28;20444;-61
2021/06/24 01:38:44;;;;;;;9.18;4.70;;;10.80;99.90;;;;;;5084643;28;20402;-59
2021/06/24 01:41:14;;;;;;;13.75;6.80;;;10.70;99.90;;;;;;5082069;28;20035;-59
2021/06/24 01:43:41;;;;;;;6.43;4.32;;;10.80;99.90;;;;;;5072065;28;20363;-59
2021/06/24 01:46:07;;;;;;;11.38;5.80;;;10.80;99.90;;;;;;5064964;28;20036;-61
2021/06/24 01:48:33;;;;;;;8.00;4.95;;;10.80;99.90;;;;;;5078208;28;20397;-60
2021/06/24 01:51:01;;;;;;;8.73;5.00;;;10.80;99.90;;;;;;5080515;28;20044;-61
2021/06/24 01:53:27;;;;;;;6.72;4.20;;;10.80;99.90;;;;;;5082671;28;20028;-59
2021/06/24 01:55:53;;;;;;;7.97;4.10;;;10.80;99.90;;;;;;5072398;28;20035;-56
2021/06/24 01:58:24;;;;;;;5.70;3.90;;;10.80;99.90;;;;;;5071017;28;20028;-58
2021/06/24 02:00:52;;;;;;;7.18;4.00;;;10.70;99.90;;;;;;5070553;28;20032;-59
2021/06/24 02:03:19;;;;;;;8.05;4.30;;;10.60;99.90;;;;;;5071019;28;20103;-59
2021/06/24 02:05:48;;;;;;;6.18;4.15;;;10.50;99.90;;;;;;5070914;28;20784;-58
2021/06/24 02:08:16;;;;;;;5.53;4.25;;;10.40;99.90;;;;;;5072936;28;20036;-60
2021/06/24 02:10:43;;;;;;;8.25;4.00;;;10.30;99.90;;;;;;5078244;28;20043;-59
2021/06/24 02:13:09;;;;;;;7.85;4.20;;;10.20;99.90;;;;;;5076836;28;20142;-59
2021/06/24 02:15:35;;;;;;;6.65;3.90;;;10.30;99.90;;;;;;5074610;28;20111;-59
2021/06/24 02:18:01;;;;;;;8.40;4.68;;;10.30;99.90;;;;;;5088161;28;20081;-58
2021/06/24 02:20:27;;;;;;;6.60;4.00;;;10.30;99.90;;;;;;5073534;28;20036;-60
2021/06/24 02:22:52;;;;;;;7.78;4.18;;;10.30;99.90;;;;;;5082960;28;20107;-62
2021/06/24 02:25:18;;;;;;;8.40;4.15;;;10.20;99.90;;;;;;5077020;28;20105;-60
2021/06/24 02:27:44;;;;;;;7.03;4.15;;;10.30;99.90;;;;;;5079731;28;20095;-59
2021/06/24 02:30:12;;;;;;;6.15;4.05;;;10.20;99.90;;;;;;5077404;28;20067;-59
2021/06/24 02:32:38;;;;;;;5.50;3.75;;;10.20;99.90;;;;;;5078598;28;20063;-58
2021/06/24 02:35:07;;;;;;;7.50;3.95;;;10.20;99.90;;;;;;5079358;28;20036;-59
2021/06/24 02:37:33;;;;;;;5.70;3.90;;;10.20;99.90;;;;;;5073536;28;20482;-58
2021/06/24 02:39:59;;;;;;;6.63;3.95;;;10.20;99.90;;;;;;5077728;28;20028;-58
2021/06/24 02:42:25;;;;;;;15.23;7.93;;;10.20;99.90;;;;;;5078772;28;20042;-60
2021/06/24 02:44:51;;;;;;;7.82;3.97;;;10.30;99.90;;;;;;5082205;28;20107;-60
2021/06/24 02:47:17;;;;;;;7.72;4.10;;;10.10;99.90;;;;;;5076818;28;20124;-58
2021/06/24 02:49:43;;;;;;;5.95;4.28;;;10.10;99.90;;;;;;5084241;28;20024;-58
2021/06/24 02:52:09;;;;;;;7.07;4.40;;;10.10;99.90;;;;;;5073931;28;20482;-60
2021/06/24 02:54:35;;;;;;;38.45;22.05;;;10.10;99.90;;;;;;5071466;28;20508;-58
2021/06/24 02:57:01;;;;;;;65.47;34.78;;;10.10;99.90;;;;;;5088632;28;20490;-57
2021/06/24 02:59:28;;;;;;;17.33;7.22;;;10.10;99.90;;;;;;5076768;28;20029;-60
2021/06/24 03:01:54;;;;;;;7.82;4.40;;;10.10;99.90;;;;;;5075686;28;20032;-58
2021/06/24 03:04:23;;;;;;;9.38;4.20;;;10.00;99.90;;;;;;5084438;28;20492;-59
2021/06/24 03:06:53;;;;;;;8.32;4.68;;;9.90;99.90;;;;;;5084794;28;20037;-58
2021/06/24 03:09:20;;;;;;;9.65;4.60;;;9.90;99.90;;;;;;5084893;28;20036;-61
2021/06/24 03:11:47;;;;;;;5.05;3.75;;;9.80;99.90;;;;;;5083070;28;20033;-58
2021/06/24 03:14:13;;;;;;;6.70;4.03;;;9.80;99.90;;;;;;5073290;28;20087;-58
2021/06/24 03:16:39;;;;;;;9.73;4.72;;;9.70;99.90;;;;;;5074155;28;20052;-60
2021/06/24 03:19:06;;;;;;;7.25;4.45;;;9.80;99.90;;;;;;5073050;28;20031;-59
2021/06/24 03:21:32;;;;;;;8.88;5.20;;;9.70;99.90;;;;;;5075606;28;20044;-59
2021/06/24 03:23:57;;;;;;;17.25;7.05;;;9.70;99.90;;;;;;5072606;28;20063;-59
2021/06/24 03:26:23;;;;;;;7.82;5.07;;;9.70;99.90;;;;;;5075969;28;20466;-58
2021/06/24 03:28:49;;;;;;;7.60;4.78;;;9.70;99.90;;;;;;5075565;28;20048;-58
2021/06/24 03:31:15;;;;;;;13.18;7.60;;;9.70;99.90;;;;;;5075040;28;20052;-57
2021/06/24 03:33:41;;;;;;;32.00;18.08;;;9.70;99.90;;;;;;5074280;28;20025;-58
2021/06/24 03:36:07;;;;;;;8.32;5.05;;;9.70;99.90;;;;;;5075854;28;20048;-60
2021/06/24 03:38:33;;;;;;;8.07;4.93;;;9.70;99.90;;;;;;5070848;28;20028;-62
2021/06/24 03:40:59;;;;;;;8.63;5.30;;;9.60;99.90;;;;;;5079995;28;20029;-58
2021/06/24 03:43:25;;;;;;;9.13;5.00;;;9.60;99.90;;;;;;5072560;28;20028;-61
2021/06/24 03:45:50;;;;;;;10.52;5.18;;;9.60;99.90;;;;;;5076479;28;20031;-57
2021/06/24 03:48:16;;;;;;;7.72;4.68;;;9.60;99.90;;;;;;5072797;28;20406;-59
2021/06/24 03:50:42;;;;;;;6.20;4.68;;;9.60;99.90;;;;;;5073668;28;20128;-59
2021/06/24 03:53:08;;;;;;;8.60;4.50;;;9.60;99.90;;;;;;5078883;28;20525;-57
2021/06/24 03:55:42;;;;;;;8.65;5.30;;;9.60;99.90;;;;;;5087004;28;20024;-57
2021/06/24 03:58:08;;;;;;;11.25;5.25;;;9.60;99.90;;;;;;5073168;28;20367;-63
2021/06/24 04:00:35;;;;;;;12.95;5.18;;;9.60;99.90;;;;;;5073778;28;20040;-60
2021/06/24 04:03:02;;;;;;;13.88;5.63;;;9.50;99.90;;;;;;5072504;28;20450;-59
2021/06/24 04:05:30;;;;;;;9.07;5.20;;;9.50;99.90;;;;;;5072473;28;20048;-59
2021/06/24 04:08:00;;;;;;;7.75;4.78;;;9.50;99.90;;;;;;5076386;28;20489;-58
2021/06/24 04:10:30;;;;;;;8.77;5.28;;;9.50;99.90;;;;;;5075476;28;20033;-59
2021/06/24 04:12:56;;;;;;;13.05;4.88;;;9.50;99.90;;;;;;5071546;28;20367;-61
2021/06/24 04:15:23;;;;;;;10.77;5.00;;;9.50;99.90;;;;;;5080271;28;20032;-58
2021/06/24 04:17:49;;;;;;;7.65;4.65;;;9.50;99.90;;;;;;5080523;28;20028;-58
2021/06/24 04:20:15;;;;;;;9.07;5.00;;;9.60;99.90;;;;;;5076390;28;20035;-59
2021/06/24 04:22:41;;;;;;;8.98;5.18;;;9.60;99.90;;;;;;5072298;28;20401;-58
2021/06/24 04:25:08;;;;;;;8.00;5.00;;;9.60;99.90;;;;;;5071897;28;20101;-60
2021/06/24 04:27:34;;;;;;;8.45;5.18;;;9.60;99.90;;;;;;5077728;28;20473;-60
2021/06/24 04:30:00;;;;;;;11.13;5.43;;;9.60;99.90;;;;;;5073151;28;20048;-58
2021/06/24 04:32:26;;;;;;;10.23;5.30;;;9.60;99.90;;;;;;5072459;28;20067;-56
2021/06/24 04:34:51;;;;;;;39.40;7.53;;;9.70;99.90;;;;;;5072464;28;20546;-58
2021/06/24 04:37:17;;;;;;;7.07;5.00;;;9.80;99.90;;;;;;5072569;28;20035;-58
2021/06/24 04:39:43;;;;;;;10.18;5.35;;;9.80;99.90;;;;;;5076370;28;20025;-58
2021/06/24 04:42:09;;;;;;;26.23;5.82;;;9.80;99.90;;;;;;5072319;28;20074;-58
2021/06/24 04:44:36;;;;;;;14.73;5.30;;;9.80;99.90;;;;;;5079322;28;20501;-59
2021/06/24 04:47:02;;;;;;;11.35;5.22;;;9.90;99.90;;;;;;5071997;28;20023;-58
2021/06/24 04:49:28;;;;;;;12.02;5.97;;;9.90;99.90;;;;;;5080936;28;20037;-58
2021/06/24 04:51:54;;;;;;;14.02;5.80;;;10.10;99.90;;;;;;5076333;28;20142;-60
2021/06/24 04:54:19;;;;;;;14.27;6.50;;;10.20;99.90;;;;;;5075641;28;20070;-60
2021/06/24 04:56:45;;;;;;;13.23;6.70;;;10.20;99.90;;;;;;5078092;28;20093;-60
2021/06/24 04:59:11;;;;;;;16.58;6.32;;;10.20;99.90;;;;;;5071367;28;20039;-60
2021/06/24 05:01:37;;;;;;;19.77;6.72;;;10.30;99.90;;;;;;5073756;28;20034;-59
2021/06/24 05:04:03;;;;;;;11.38;6.50;;;10.30;99.90;;;;;;5075478;28;20403;-58
2021/06/24 05:06:29;;;;;;;17.50;6.35;;;10.50;99.90;;;;;;5073053;28;20119;-58
2021/06/24 05:08:55;;;;;;;14.40;7.55;;;10.50;99.90;;;;;;5077721;28;20132;-58
2021/06/24 05:11:21;;;;;;;14.07;6.50;;;10.60;99.90;;;;;;5074651;28;20059;-56
2021/06/24 05:13:46;;;;;;;12.65;6.85;;;10.60;99.90;;;;;;5074275;28;20097;-59
2021/06/24 05:16:12;;;;;;;13.43;7.07;;;10.80;99.90;;;;;;5073793;28;20025;-59
2021/06/24 05:18:38;;;;;;;14.35;7.05;;;10.90;99.90;;;;;;5077722;28;20027;-61
2021/06/24 05:21:05;;;;;;;19.42;7.05;;;11.00;99.90;;;;;;5071228;28;20067;-58
2021/06/24 05:23:30;;;;;;;12.75;6.97;;;11.10;99.90;;;;;;5072106;28;20024;-58
2021/06/24 05:25:56;;;;;;;16.27;6.82;;;11.20;99.90;;;;;;5077099;28;20382;-59
2021/06/24 05:28:22;;;;;;;22.65;7.80;;;11.20;99.90;;;;;;5071653;28;20112;-59
2021/06/24 05:30:49;;;;;;;13.75;7.15;;;11.40;99.90;;;;;;5072750;28;20150;-59
2021/06/24 05:33:15;;;;;;;21.70;8.70;;;11.50;99.90;;;;;;5076022;28;20550;-59
2021/06/24 05:35:42;;;;;;;16.40;7.20;;;11.50;99.90;;;;;;5070792;28;20166;-59
2021/06/24 05:38:11;;;;;;;23.50;8.18;;;11.60;99.90;;;;;;5077191;28;20452;-59
2021/06/24 05:40:38;;;;;;;30.80;8.43;;;11.60;99.90;;;;;;5070639;28;20032;-60
2021/06/24 05:43:04;;;;;;;15.35;7.32;;;11.70;99.90;;;;;;5071620;28;20035;-58
2021/06/24 05:45:30;;;;;;;34.97;8.27;;;11.80;99.90;;;;;;5070259;28;20459;-60
2021/06/24 05:47:56;;;;;;;21.95;7.90;;;11.80;99.90;;;;;;5080704;28;20024;-59
2021/06/24 05:50:26;;;;;;;20.48;7.38;;;12.00;99.90;;;;;;5071525;28;20481;-59
2021/06/24 05:52:55;;;;;;;25.38;7.68;;;12.00;99.90;;;;;;5071241;28;20029;-59
2021/06/24 05:56:08;;;;;;;19.60;7.53;;;12.10;99.90;;;;;;5070105;28;20063;-58
2021/06/24 05:58:10;;;;;;;22.20;7.75;;;12.10;99.90;;;;;;5059424;28;20047;-58
2021/06/24 06:00:36;;;;;;;17.77;8.27;;;12.30;99.90;;;;;;5070079;28;20032;-58
2021/06/24 06:03:02;;;;;;;21.30;7.20;;;12.50;99.90;;;;;;5076819;28;20028;-59
2021/06/24 06:05:28;;;;;;;19.65;7.97;;;12.60;99.90;;;;;;5069964;28;20044;-58
2021/06/24 06:07:54;;;;;;;17.95;7.68;;;12.70;99.90;;;;;;5077716;28;20024;-58
2021/06/24 06:10:20;;;;;;;18.40;8.43;;;12.90;99.90;;;;;;5075938;28;20051;-59
2021/06/24 06:12:46;;;;;;;17.70;8.98;;;13.00;99.90;;;;;;5072477;28;20484;-60
2021/06/24 06:15:12;;;;;;;15.75;8.10;;;13.20;99.90;;;;;;5076995;28;20024;-60
2021/06/24 06:17:39;;;;;;;23.50;9.23;;;13.40;99.90;;;;;;5075494;28;20043;-59
2021/06/24 06:20:05;;;;;;;23.15;8.80;;;13.60;99.90;;;;;;5068613;28;20021;-59
2021/06/24 06:22:31;;;;;;;19.40;7.82;;;13.70;99.90;;;;;;5069579;28;20536;-58
2021/06/24 06:24:57;;;;;;;14.25;7.72;;;13.70;99.90;;;;;;5059809;28;20032;-59
2021/06/24 06:27:23;;;;;;;19.48;8.80;;;13.80;99.90;;;;;;5078008;28;20119;-60
2021/06/24 06:29:49;;;;;;;17.73;8.63;;;13.90;99.90;;;;;;5072289;28;20126;-55
2021/06/24 06:32:14;;;;;;;18.35;8.77;;;14.00;99.90;;;;;;5088055;28;20028;-57
2021/06/24 06:34:40;;;;;;;15.05;9.07;;;14.20;99.90;;;;;;5075757;28;20035;-58
2021/06/24 06:37:06;;;;;;;22.55;10.73;;;14.40;99.90;;;;;;5072470;28;20032;-60
2021/06/24 06:39:32;;;;;;;19.23;10.00;;;14.60;99.90;;;;;;5070306;28;20133;-58
2021/06/24 06:41:57;;;;;;;17.85;9.43;;;14.90;99.90;;;;;;5070477;28;20055;-59
2021/06/24 06:44:23;;;;;;;25.20;10.18;;;15.40;99.90;;;;;;5070503;28;20036;-59
2021/06/24 06:46:49;;;;;;;25.80;10.93;;;15.90;99.90;;;;;;5070595;28;20111;-61
2021/06/24 06:49:15;;;;;;;36.92;11.55;;;16.00;99.90;;;;;;5080811;28;20450;-59
2021/06/24 06:51:40;;;;;;;28.67;11.68;;;16.40;99.90;;;;;;5067844;28;20392;-61
2021/06/24 06:54:06;;;;;;;22.70;13.52;;;16.70;99.90;;;;;;5071858;28;20115;-57
2021/06/24 06:56:33;;;;;;;25.42;12.45;;;16.60;99.90;;;;;;5070185;28;20025;-59
2021/06/24 06:59:00;;;;;;;30.33;12.57;;;16.50;99.90;;;;;;5065457;28;20170;-57
2021/06/24 07:01:26;;;;;;;25.48;12.02;;;16.50;99.90;;;;;;5068718;28;20331;-62
2021/06/24 07:03:52;;;;;;;18.70;12.13;;;16.70;99.90;;;;;;5073718;28;20552;-59
2021/06/24 07:06:18;;;;;;;21.67;12.30;;;16.80;99.90;;;;;;5080317;28;20028;-62
2021/06/24 07:08:45;;;;;;;22.90;11.85;;;17.00;99.90;;;;;;5086581;28;20028;-60
2021/06/24 07:11:11;;;;;;;25.30;12.38;;;17.00;99.90;;;;;;5074045;28;20040;-59
2021/06/24 07:13:37;;;;;;;22.65;10.98;;;17.00;99.90;;;;;;5078293;28;20028;-59
2021/06/24 07:16:03;;;;;;;27.55;12.30;;;17.10;99.90;;;;;;5084068;28;20032;-60
2021/06/24 07:18:28;;;;;;;27.02;11.93;;;17.20;99.90;;;;;;5074806;28;20069;-58
2021/06/24 07:20:54;;;;;;;22.65;10.73;;;17.40;99.90;;;;;;5073982;28;20032;-61
2021/06/24 07:23:20;;;;;;;19.25;11.70;;;17.50;99.90;;;;;;5079462;28;20028;-60
2021/06/24 07:25:46;;;;;;;25.73;12.00;;;17.80;99.90;;;;;;5073944;28;20032;-59
2021/06/24 07:28:12;;;;;;;23.30;11.07;;;18.00;99.90;;;;;;5073576;28;20066;-59
2021/06/24 07:30:38;;;;;;;21.05;11.40;;;18.50;99.90;;;;;;5072442;28;20060;-59
2021/06/24 07:33:04;;;;;;;19.23;11.30;;;18.70;99.90;;;;;;5071949;28;20028;-61
2021/06/24 07:35:30;;;;;;;22.65;12.70;;;18.80;99.90;;;;;;5077379;28;20033;-60
2021/06/24 07:37:56;;;;;;;18.40;11.00;;;19.00;99.90;;;;;;5073590;28;20349;-59
2021/06/24 07:40:22;;;;;;;18.42;11.07;;;19.20;99.90;;;;;;5071000;28;20112;-63
2021/06/24 07:42:47;;;;;;;21.75;11.60;;;19.40;99.90;;;;;;5086169;28;20032;-61
2021/06/24 07:45:14;;;;;;;20.13;11.52;;;19.40;99.90;;;;;;5072829;28;20036;-62
2021/06/24 07:47:40;;;;;;;15.55;10.45;;;19.70;99.90;;;;;;5073089;28;20028;-61
2021/06/24 07:50:06;;;;;;;17.58;12.02;;;19.80;99.90;;;;;;5072748;28;20091;-60
2021/06/24 07:52:32;;;;;;;21.92;12.98;;;19.70;99.90;;;;;;5073450;28;20040;-60
2021/06/24 07:54:58;;;;;;;20.05;12.15;;;19.80;99.90;;;;;;5072384;28;20537;-59
2021/06/24 07:57:23;;;;;;;26.10;12.27;;;19.80;99.90;;;;;;5072852;28;20028;-59
2021/06/24 07:59:49;;;;;;;19.27;12.23;;;20.00;99.90;;;;;;5070628;28;20034;-59
2021/06/24 08:02:15;;;;;;;17.58;12.57;;;20.10;99.90;;;;;;5073374;28;20381;-60
2021/06/24 08:04:41;;;;;;;20.90;13.43;;;20.20;99.90;;;;;;5072758;28;20494;-59
2021/06/24 08:07:07;;;;;;;22.42;13.23;;;20.10;99.90;;;;;;5071940;28;20039;-59
2021/06/24 08:09:33;;;;;;;17.85;13.45;;;20.30;99.90;;;;;;5072775;28;20115;-60
2021/06/24 08:11:59;;;;;;;23.05;13.70;;;20.30;99.90;;;;;;5071121;28;20115;-59
2021/06/24 08:14:25;;;;;;;19.23;13.25;;;20.30;99.90;;;;;;5072806;28;20127;-59
2021/06/24 08:16:51;;;;;;;21.77;13.30;;;20.60;99.90;;;;;;5071958;28;20033;-60
2021/06/24 08:19:17;;;;;;;19.13;12.68;;;20.70;99.90;;;;;;5082623;28;20043;-61
2021/06/24 08:21:43;;;;;;;15.40;12.43;;;20.70;99.90;;;;;;5071930;28;20029;-60
2021/06/24 08:24:09;;;;;;;20.17;11.27;;;20.80;99.90;;;;;;5072287;28;20028;-60
2021/06/24 08:26:34;;;;;;;22.05;11.88;;;20.90;99.90;;;;;;5082295;28;20456;-59
2021/06/24 08:29:00;;;;;;;16.73;10.32;;;20.90;99.90;;;;;;5087343;28;20044;-61
2021/06/24 08:31:26;;;;;;;17.67;11.23;;;20.90;99.90;;;;;;5071524;28;20059;-60
2021/06/24 08:33:52;;;;;;;17.98;10.75;;;20.90;99.90;;;;;;5078612;28;20531;-60
2021/06/24 08:36:19;;;;;;;12.18;9.70;;;20.80;99.90;;;;;;5071771;28;20063;-60
2021/06/24 08:38:45;;;;;;;17.33;11.23;;;20.80;99.90;;;;;;5085155;28;20020;-59
2021/06/24 08:41:14;;;;;;;14.75;10.23;;;20.70;99.90;;;;;;5079105;28;20044;-59
2021/06/24 08:43:40;;;;;;;17.48;10.38;;;21.00;99.90;;;;;;5080921;28;20032;-61
2021/06/24 08:46:06;;;;;;;16.33;11.18;;;21.10;99.90;;;;;;5071718;28;20023;-61
2021/06/24 08:48:34;;;;;;;14.95;11.10;;;20.70;99.90;;;;;;5075128;28;20023;-58
2021/06/24 08:51:00;;;;;;;17.83;11.10;;;20.60;99.90;;;;;;5077929;28;20050;-61
2021/06/24 08:53:26;;;;;;;16.17;10.40;;;20.50;99.90;;;;;;5074100;28;20032;-61
2021/06/24 08:55:55;;;;;;;13.07;10.05;;;20.50;99.90;;;;;;5070917;28;20028;-61
2021/06/24 08:58:23;;;;;;;16.40;9.63;;;20.50;99.90;;;;;;5066418;28;20127;-60
2021/06/24 09:00:49;;;;;;;17.40;10.43;;;20.40;99.90;;;;;;5070612;28;20024;-61
2021/06/24 09:03:21;;;;;;;11.95;9.60;;;20.60;99.90;;;;;;5072282;28;20020;-60
2021/06/24 09:05:48;;;;;;;21.05;10.65;;;20.60;99.90;;;;;;5061523;28;20039;-61
2021/06/24 09:08:41;;;;;;;18.88;10.00;;;20.60;99.90;;;;;;5067655;28;20041;-61
2021/06/24 09:11:24;;;;;;;19.55;11.25;;;20.50;99.90;;;;;;5070860;28;20039;-57
2021/06/24 09:14:19;;;;;;;16.52;9.68;;;20.60;99.90;;;;;;5072301;28;20074;-59
2021/06/24 09:16:45;;;;;;;14.18;10.57;;;20.70;99.90;;;;;;5057649;28;20132;-59
2021/06/24 09:19:23;;;;;;;16.65;10.75;;;20.70;99.90;;;;;;5070926;28;20166;-58
2021/06/24 09:22:03;;;;;;;21.92;12.35;;;20.80;99.90;;;;;;5070005;28;20051;-57
2021/06/24 09:24:30;;;;;;;21.48;11.77;;;20.90;99.90;;;;;;5071333;28;20051;-59
2021/06/24 09:26:59;;;;;;;18.02;12.82;;;20.90;99.90;;;;;;5070783;28;20131;-58
2021/06/24 09:29:24;;;;;;;16.67;12.57;;;20.80;99.90;;;;;;5070584;28;20451;-59
2021/06/24 09:31:55;;;;;;;17.80;11.93;;;20.90;99.90;;;;;;5075513;28;20111;-57
2021/06/24 09:34:22;;;;;;;19.60;13.05;;;21.00;99.90;;;;;;5075820;28;20036;-58
2021/06/24 09:36:51;;;;;;;17.13;12.50;;;21.10;99.90;;;;;;5079541;28;20024;-59
2021/06/24 09:39:29;;;;;;;17.23;12.23;;;21.30;99.90;;;;;;5077614;28;20032;-57
2021/06/24 09:41:59;;;;;;;21.38;12.63;;;21.30;99.90;;;;;;5079704;28;20028;-60
2021/06/24 09:44:26;;;;;;;18.55;12.20;;;21.80;99.90;;;;;;5073271;28;20032;-58
2021/06/24 09:46:52;;;;;;;16.85;11.98;;;21.90;99.90;;;;;;5076481;28;20055;-57
2021/06/24 09:49:34;;;;;;;21.17;12.07;;;21.80;99.90;;;;;;5073167;28;20470;-59
2021/06/24 09:52:03;;;;;;;21.17;12.98;;;21.70;99.90;;;;;;5070850;28;20367;-57
2021/06/24 09:54:43;;;;;;;22.75;13.20;;;21.70;99.90;;;;;;5078096;28;20028;-59
2021/06/24 09:57:20;;;;;;;20.95;13.05;;;21.80;99.90;;;;;;5056665;28;20024;-58
2021/06/24 09:59:46;;;;;;;27.27;12.55;;;21.80;99.90;;;;;;5071089;28;20028;-59
2021/06/24 10:02:13;;;;;;;17.20;12.48;;;21.90;99.90;;;;;;5070045;28;20032;-59
2021/06/24 10:04:41;;;;;;;20.42;12.93;;;21.80;99.90;;;;;;5072659;28;20025;-58
2021/06/24 10:07:10;;;;;;;17.35;11.73;;;21.80;99.90;;;;;;5076790;28;20025;-58
2021/06/24 10:09:40;;;;;;;22.70;12.57;;;22.10;99.90;;;;;;5071490;28;20039;-59
2021/06/24 10:12:09;;;;;;;18.77;12.10;;;22.50;99.90;;;;;;5074790;28;20378;-59
2021/06/24 10:14:35;;;;;;;18.42;11.68;;;22.60;99.90;;;;;;5072717;28;20055;-59
2021/06/24 10:17:03;;;;;;;18.95;11.63;;;22.60;99.90;;;;;;5082123;28;20028;-60
2021/06/24 10:19:30;;;;;;;18.45;11.48;;;22.40;99.90;;;;;;5074220;28;20037;-60
2021/06/24 10:22:13;;;;;;;24.08;12.10;;;22.20;99.90;;;;;;5065214;28;20119;-60
2021/06/24 10:24:47;;;;;;;17.23;10.82;;;22.10;99.90;;;;;;5070915;28;20029;-58
2021/06/24 10:27:14;;;;;;;16.83;11.38;;;22.10;99.90;;;;;;5069948;28;20082;-62
2021/06/24 10:29:45;;;;;;;17.65;10.93;;;22.50;99.90;;;;;;5071970;28;20064;-59
2021/06/24 10:32:23;;;;;;;11.05;9.45;;;22.40;99.90;;;;;;5075721;28;20028;-59
2021/06/24 10:34:50;;;;;;;13.07;9.43;;;22.20;99.90;;;;;;5071925;28;20028;-59
2021/06/24 10:37:22;;;;;;;13.52;9.70;;;22.20;99.90;;;;;;5073452;28;20501;-58
2021/06/24 10:39:47;;;;;;;17.08;10.85;;;21.90;99.90;;;;;;5073198;28;20441;-58
2021/06/24 10:42:15;;;;;;;16.17;9.52;;;21.90;99.90;;;;;;5078594;28;20485;-61
2021/06/24 10:44:46;;;;;;;14.02;10.38;;;21.90;99.90;;;;;;5059891;28;20151;-58
2021/06/24 10:47:13;;;;;;;16.73;9.98;;;22.10;99.90;;;;;;5067594;28;20371;-59
2021/06/24 10:49:39;;;;;;;18.58;10.65;;;22.50;99.90;;;;;;5067102;28;20066;-59
2021/06/24 10:52:26;;;;;;;18.58;10.13;;;22.60;99.90;;;;;;5072088;28;20418;-58
2021/06/24 10:54:57;;;;;;;15.18;9.40;;;22.60;99.90;;;;;;5088266;28;20048;-59
2021/06/24 10:57:37;;;;;;;12.90;9.13;;;22.50;99.90;;;;;;5086954;28;20103;-60
2021/06/24 11:00:33;;;;;;;17.00;10.52;;;22.60;99.90;;;;;;5076497;28;20104;-59
2021/06/24 11:03:00;;;;;;;14.98;9.23;;;22.70;99.90;;;;;;5060258;28;20040;-58
2021/06/24 11:05:35;;;;;;;11.70;9.25;;;22.40;99.90;;;;;;5081087;28;20077;-60
2021/06/24 11:08:08;;;;;;;12.93;8.43;;;22.00;99.90;;;;;;5073040;28;20033;-59
2021/06/24 11:10:49;;;;;;;10.23;8.30;;;21.80;99.90;;;;;;5080529;28;20074;-59
2021/06/24 11:13:16;;;;;;;11.18;8.55;;;21.80;99.90;;;;;;5072877;28;20032;-59
2021/06/24 11:16:09;;;;;;;12.88;8.27;;;21.90;99.90;;;;;;5068922;28;20391;-59
2021/06/24 11:18:34;;;;;;;12.85;7.00;;;22.40;99.90;;;;;;5056231;28;20044;-57
2021/06/24 11:21:21;;;;;;;11.48;6.82;;;22.90;99.90;;;;;;5073585;28;20032;-59
2021/06/24 11:23:54;;;;;;;16.23;8.63;;;23.00;99.90;;;;;;5073969;28;20032;-59
2021/06/24 11:26:28;;;;;;;7.97;6.13;;;23.20;99.90;;;;;;5080837;28;20039;-61
2021/06/24 11:36:58;;;;;;;12.90;7.63;;;23.10;99.90;;;;;;5077974;28;20025;-60
2021/06/24 11:39:32;;;;;;;11.95;7.85;;;23.20;99.90;;;;;;5076116;28;20036;-59
2021/06/24 11:42:05;;;;;;;12.95;7.63;;;23.00;99.90;;;;;;5076557;28;20043;-59
2021/06/24 11:44:46;;;;;;;14.68;7.68;;;22.80;99.90;;;;;;5078460;28;20038;-60
2021/06/24 11:47:17;;;;;;;12.95;7.18;;;22.90;99.90;;;;;;5069520;28;20035;-60
2021/06/24 12:01:46;;;;;;;14.48;8.05;;;22.60;99.90;;;;;;5083372;28;20030;-58
2021/06/24 12:04:08;;;;;;;13.45;8.32;;;22.70;99.90;;;;;;5077631;28;20158;-58
2021/06/24 12:07:11;;;;;;;11.25;7.95;;;22.90;99.90;;;;;;5085996;28;20460;-58
2021/06/24 12:09:45;;;;;;;10.52;7.80;;;22.90;99.90;;;;;;5076956;28;20032;-61
2021/06/24 12:12:16;;;;;;;9.35;7.22;;;22.80;99.90;;;;;;5064969;28;20186;-60
2021/06/24 12:14:44;;;;;;;17.30;8.75;;;22.60;99.90;;;;;;5073576;28;20029;-58
2021/06/24 12:17:28;;;;;;;10.73;7.63;;;22.70;99.90;;;;;;5079101;28;20123;-60
2021/06/24 12:19:54;;;;;;;12.93;7.57;;;22.60;99.90;;;;;;5073936;28;20043;-61
2021/06/24 12:22:40;;;;;;;14.52;7.43;;;23.00;99.90;;;;;;5078773;28;20028;-59
2021/06/24 12:25:14;;;;;;;12.05;6.93;;;23.00;99.90;;;;;;5073851;28;20032;-60
2021/06/24 12:27:46;;;;;;;9.68;6.97;;;22.90;99.90;;;;;;5077318;28;20032;-60
2021/06/24 12:30:15;;;;;;;17.88;7.50;;;22.90;99.90;;;;;;5088480;28;20490;-59
2021/06/24 12:32:57;;;;;;;9.18;6.63;;;22.80;99.90;;;;;;5075911;28;20044;-59
2021/06/24 12:35:25;;;;;;;9.13;6.63;;;22.90;99.90;;;;;;5085501;28;20469;-60
2021/06/24 12:37:52;;;;;;;9.82;6.93;;;22.80;99.90;;;;;;5075874;28;20024;-57
2021/06/24 12:40:19;;;;;;;10.73;7.65;;;22.90;99.90;;;;;;5080547;28;20025;-57
2021/06/24 12:42:46;;;;;;;11.95;8.00;;;22.90;99.90;;;;;;5072518;28;20036;-58
2021/06/24 12:45:14;;;;;;;13.30;7.95;;;22.90;99.90;;;;;;5072445;28;20501;-60
2021/06/24 12:47:44;;;;;;;16.92;7.60;;;22.50;99.90;;;;;;5067494;28;20102;-60
2021/06/24 12:50:14;;;;;;;12.60;8.52;;;22.60;99.90;;;;;;5062516;28;20532;-58
2021/06/24 12:52:51;;;;;;;14.18;8.55;;;22.30;99.90;;;;;;5071067;28;20086;-59
2021/06/24 12:55:41;;;;;;;12.98;9.32;;;22.30;99.90;;;;;;5077908;28;20044;-60
2021/06/24 12:58:31;;;;;;;14.80;9.95;;;22.20;99.90;;;;;;5081291;28;20044;-58
2021/06/24 13:01:09;;;;;;;12.15;8.43;;;22.20;99.90;;;;;;5071837;28;20438;-61
2021/06/24 13:03:45;;;;;;;11.75;9.05;;;22.40;99.90;;;;;;5070540;28;20028;-57